Time;durP1;ratioP1;P1;durP2;ratioP2;P2;SDS_P1;SDS_P2;PMS_P1;PMS_P2;Temp;Humidity;BMP_temperature;BMP_pressure;BME280_temperature;BME280_humidity;BME280_pressure;Samples;Min_cycle;Max_cycle;Signal;HPM_P1;HPM_P2
2022/06/27 00:01:11;;;;;;;5.80;2.33;;;;;;;17.06;100.00;100929.02;1690586;85;21171;-42
2022/06/27 00:03:39;;;;;;;3.42;2.55;;;;;;;17.03;100.00;100929.14;1690336;85;21500;-41
2022/06/27 00:06:05;;;;;;;9.63;2.58;;;;;;;17.00;100.00;100929.70;1690451;85;21023;-42
2022/06/27 00:08:34;;;;;;;8.23;2.40;;;;;;;16.94;100.00;100928.99;1690438;85;21067;-41
2022/06/27 00:11:02;;;;;;;2.77;2.58;;;;;;;16.91;100.00;100928.24;1690311;85;20992;-41
2022/06/27 00:13:30;;;;;;;7.72;2.47;;;;;;;16.88;100.00;100924.00;1690387;85;21242;-42
2022/06/27 00:15:57;;;;;;;6.83;2.50;;;;;;;16.83;100.00;100926.38;1691197;83;20964;-41
2022/06/27 00:18:25;;;;;;;6.58;2.72;;;;;;;16.76;100.00;100926.62;1722651;83;21002;-42
2022/06/27 00:22:20;;;;;;;4.65;3.10;;;;;;;16.78;100.00;100925.23;1798614;79;22570;-41
2022/06/27 00:24:47;;;;;;;6.42;3.40;;;;;;;16.73;100.00;100921.95;1758191;81;20845;-41
2022/06/27 00:27:13;;;;;;;4.95;3.10;;;;;;;16.69;100.00;100925.58;1758257;81;21260;-41
2022/06/27 00:29:42;;;;;;;3.77;3.42;;;;;;;16.63;100.00;100924.03;1758178;81;20936;-41
2022/06/27 00:32:09;;;;;;;5.50;2.92;;;;;;;16.60;100.00;100922.84;1758072;81;21537;-41
2022/06/27 00:34:38;;;;;;;4.80;2.98;;;;;;;16.57;100.00;100922.52;1758069;81;20944;-42
2022/06/27 00:37:04;;;;;;;6.47;2.35;;;;;;;16.56;100.00;100918.20;1758210;81;21465;-42
2022/06/27 00:39:31;;;;;;;3.45;2.90;;;;;;;16.56;100.00;100922.56;1758281;81;21250;-42
2022/06/27 00:41:58;;;;;;;2.80;2.60;;;;;;;16.53;100.00;100923.52;1758196;81;20979;-42
2022/06/27 00:44:38;;;;;;;8.30;3.10;;;;;;;16.51;100.00;100926.64;1758108;81;20987;-42
2022/06/27 00:47:06;;;;;;;7.30;3.10;;;;;;;16.51;100.00;100935.78;1757734;81;20995;-42
2022/06/27 00:49:34;;;;;;;3.55;3.25;;;;;;;16.51;100.00;100938.39;1758065;81;21517;-42
2022/06/27 00:52:08;;;;;;;10.15;3.55;;;;;;;16.49;100.00;100929.77;1758167;81;21246;-42
2022/06/27 00:54:36;;;;;;;4.00;3.50;;;;;;;16.47;100.00;100931.14;1758018;81;20959;-41
2022/06/27 00:57:04;;;;;;;5.72;3.10;;;;;;;16.47;100.00;100931.58;1758109;81;20976;-41
2022/06/27 00:59:32;;;;;;;7.67;3.40;;;;;;;16.45;100.00;100932.09;1758019;81;21513;-41
2022/06/27 01:01:59;;;;;;;12.85;3.87;;;;;;;16.42;100.00;100932.20;1758038;81;20969;-41
2022/06/27 01:04:25;;;;;;;5.17;3.27;;;;;;;16.40;100.00;100927.48;1750294;81;21191;-41
2022/06/27 01:06:52;;;;;;;5.65;3.67;;;;;;;16.36;100.00;100931.52;1749780;82;20967;-41
2022/06/27 01:09:22;;;;;;;7.40;3.50;;;;;;;16.35;100.00;100931.56;1749928;82;21030;-41
2022/06/27 01:11:50;;;;;;;8.10;3.83;;;;;;;16.32;100.00;100939.07;1749919;82;20920;-43
2022/06/27 01:14:17;;;;;;;5.42;3.92;;;;;;;16.29;100.00;100936.53;1749978;80;20976;-42
2022/06/27 01:16:44;;;;;;;7.12;3.80;;;;;;;16.27;100.00;100938.82;1749939;82;21257;-42
2022/06/27 01:19:14;;;;;;;7.55;3.80;;;;;;;16.23;100.00;100938.06;1749641;81;20976;-42
2022/06/27 01:21:48;;;;;;;6.12;3.55;;;;;;;16.23;100.00;100944.59;1750181;81;21032;-42
2022/06/27 01:24:16;;;;;;;8.23;3.75;;;;;;;16.22;100.00;100945.06;1750668;82;21026;-43
2022/06/27 01:26:43;;;;;;;8.10;3.47;;;;;;;16.20;100.00;100944.70;1750541;82;20952;-42
2022/06/27 01:29:12;;;;;;;6.62;3.80;;;;;;;16.17;100.00;100947.42;1750434;82;21068;-42
2022/06/27 01:31:39;;;;;;;6.62;4.20;;;;;;;16.16;100.00;100950.94;1750433;82;20976;-42
2022/06/27 01:34:07;;;;;;;7.83;3.67;;;;;;;16.16;100.00;100952.25;1750179;82;20968;-42
2022/06/27 01:36:43;;;;;;;11.48;4.03;;;;;;;16.14;100.00;100952.75;1750014;81;21430;-42
2022/06/27 01:39:22;;;;;;;6.50;4.20;;;;;;;16.09;100.00;100948.55;1749107;82;21026;-43
2022/06/27 01:41:57;;;;;;;7.33;4.30;;;;;;;16.06;100.00;100946.48;1750115;82;21137;-43
2022/06/27 01:44:28;;;;;;;10.72;4.20;;;;;;;16.05;100.00;100943.47;1749740;82;20980;-43
2022/06/27 01:47:08;;;;;;;7.53;4.35;;;;;;;16.04;100.00;100954.38;1750166;82;20936;-43
2022/06/27 01:49:37;;;;;;;12.80;4.80;;;;;;;16.07;100.00;100949.48;1750054;81;21490;-43
2022/06/27 01:52:06;;;;;;;13.38;3.72;;;;;;;16.06;100.00;100953.88;1750192;82;20853;-43
2022/06/27 01:54:36;;;;;;;7.60;4.25;;;;;;;16.08;100.00;100945.97;1750041;82;21478;-43
2022/06/27 01:57:04;;;;;;;7.40;4.33;;;;;;;16.13;100.00;100949.27;1749972;82;20963;-43
2022/06/27 01:59:32;;;;;;;8.18;4.60;;;;;;;16.17;100.00;100943.06;1750070;82;21558;-43
2022/06/27 02:02:03;;;;;;;7.65;4.30;;;;;;;16.23;100.00;100954.60;1749731;82;21458;-41
2022/06/27 02:04:30;;;;;;;7.90;4.37;;;;;;;16.27;100.00;100951.41;1750118;82;21430;-41
2022/06/27 02:06:58;;;;;;;8.55;4.40;;;;;;;16.32;100.00;100950.83;1750039;81;21106;-41
2022/06/27 02:09:25;;;;;;;6.58;4.28;;;;;;;16.35;100.00;100948.10;1749958;82;20928;-41
2022/06/27 02:11:54;;;;;;;8.45;4.33;;;;;;;16.38;100.00;100952.34;1750045;82;20940;-41
2022/06/27 02:14:22;;;;;;;12.13;4.20;;;;;;;16.42;100.00;100954.41;1750099;82;20931;-41
2022/06/27 02:16:49;;;;;;;12.35;5.25;;;;;;;16.47;100.00;100959.02;1750006;82;20924;-42
2022/06/27 02:19:18;;;;;;;6.70;4.33;;;;;;;16.50;100.00;100954.98;1750029;82;21241;-41
2022/06/27 02:21:45;;;;;;;7.90;4.17;;;;;;;16.55;100.00;100954.83;1749925;82;20913;-41
2022/06/27 02:24:12;;;;;;;4.55;4.03;;;;;;;16.59;100.00;100962.52;1750070;82;20944;-41
2022/06/27 02:26:39;;;;;;;5.30;3.85;;;;;;;16.63;100.00;100963.23;1749985;81;20920;-41
2022/06/27 02:29:06;;;;;;;6.87;3.95;;;;;;;16.66;100.00;100958.77;1750032;82;21458;-41
2022/06/27 02:31:33;;;;;;;9.30;4.55;;;;;;;16.72;100.00;100965.98;1750119;82;21133;-41
2022/06/27 02:34:01;;;;;;;10.43;4.47;;;;;;;16.77;100.00;100964.05;1749811;82;20893;-41
2022/06/27 02:36:36;;;;;;;8.08;3.65;;;;;;;16.84;100.00;100964.68;1750129;82;20889;-44
2022/06/27 02:39:03;;;;;;;6.45;4.00;;;;;;;16.88;100.00;100967.14;1750044;82;21491;-41
2022/06/27 02:41:37;;;;;;;8.40;4.40;;;;;;;16.93;100.00;100963.06;1750037;82;20889;-41
2022/06/27 02:44:11;;;;;;;4.47;4.08;;;;;;;16.98;100.00;100964.17;1750168;82;21882;-43
2022/06/27 02:46:38;;;;;;;10.05;4.15;;;;;;;17.03;100.00;100967.49;1749988;82;21391;-41
2022/06/27 02:49:05;;;;;;;4.30;3.90;;;;;;;17.08;100.00;100964.27;1749999;82;20917;-41
2022/06/27 02:51:47;;;;;;;5.12;3.75;;;;;;;17.15;100.00;100967.48;1750111;82;20892;-42
2022/06/27 02:54:21;;;;;;;5.90;3.87;;;;;;;17.20;100.00;100957.73;1735784;82;20904;-41
2022/06/27 02:56:54;;;;;;;6.67;3.92;;;;;;;17.27;100.00;100957.01;1747894;82;21152;-40
2022/06/27 02:59:26;;;;;;;13.30;4.40;;;;;;;17.33;100.00;100969.88;1749776;82;21481;-41
2022/06/27 03:01:53;;;;;;;9.68;3.70;;;;;;;17.38;100.00;100966.63;1749931;81;20960;-44
2022/06/27 03:04:21;;;;;;;6.65;3.87;;;;;;;17.44;100.00;100965.06;1748939;82;20924;-41
2022/06/27 03:06:49;;;;;;;8.48;3.87;;;;;;;17.49;100.00;100967.04;1749993;82;20911;-41
2022/06/27 03:09:17;;;;;;;6.97;4.28;;;;;;;17.54;100.00;100973.41;1722672;82;21887;-41
2022/06/27 03:11:50;;;;;;;9.20;4.08;;;;;;;17.59;100.00;100970.62;1750237;82;21438;-41
2022/06/27 03:14:17;;;;;;;6.08;4.22;;;;;;;17.64;100.00;100971.28;1750074;81;20964;-41
2022/06/27 03:16:44;;;;;;;5.45;4.03;;;;;;;17.69;100.00;100969.33;1750095;82;20964;-41
2022/06/27 03:19:12;;;;;;;7.08;3.87;;;;;;;17.75;100.00;100970.86;1749931;81;20904;-41
2022/06/27 03:21:44;;;;;;;8.00;3.80;;;;;;;17.80;100.00;100973.66;1744584;81;21176;-41
2022/06/27 03:24:10;;;;;;;7.65;4.10;;;;;;;17.88;100.00;100975.13;1735866;82;21446;-41
2022/06/27 03:26:39;;;;;;;10.03;4.28;;;;;;;17.97;100.00;100974.75;1736065;82;21324;-41
2022/06/27 03:29:06;;;;;;;5.20;4.40;;;;;;;18.04;100.00;100968.36;1735994;82;20976;-41
2022/06/27 03:31:33;;;;;;;3.85;3.55;;;;;;;18.14;100.00;100969.30;1735939;81;20925;-41
2022/06/27 03:34:02;;;;;;;5.10;4.33;;;;;;;18.26;100.00;100967.45;1736107;82;22346;-41
2022/06/27 03:36:32;;;;;;;4.65;3.85;;;;;;;18.40;100.00;100968.65;1735401;82;20926;-41
2022/06/27 03:39:00;;;;;;;14.43;4.25;;;;;;;18.54;100.00;100974.12;1736025;82;20890;-41
2022/06/27 03:41:27;;;;;;;5.33;3.60;;;;;;;18.74;100.00;100969.78;1739731;82;20973;-41
2022/06/27 03:43:56;;;;;;;6.17;3.70;;;;;;;18.98;100.00;100973.53;1736124;81;20917;-41
2022/06/27 03:46:23;;;;;;;3.83;3.45;;;;;;;19.29;100.00;100965.57;1736081;82;21090;-41
2022/06/27 03:51:38;;;;;;;10.93;3.55;;;;;;;19.91;100.00;100977.09;1714229;82;21478;-41
2022/06/27 03:54:05;;;;;;;9.60;3.95;;;;;;;20.21;99.31;100976.03;1736040;82;20964;-41
2022/06/27 03:56:32;;;;;;;8.48;3.58;;;;;;;20.45;97.19;100977.46;1736216;82;22163;-41
2022/06/27 03:58:59;;;;;;;9.33;3.52;;;;;;;20.66;95.67;100977.66;1736074;81;21188;-42
2022/06/27 04:01:26;;;;;;;8.03;3.65;;;;;;;20.86;93.89;100974.47;1735924;81;20933;-42
2022/06/27 04:03:53;;;;;;;10.55;3.60;;;;;;;21.01;92.28;100970.16;1735895;81;21076;-42
2022/06/27 04:06:20;;;;;;;7.17;3.50;;;;;;;21.12;90.83;100968.71;1736071;82;20961;-42
2022/06/27 04:08:46;;;;;;;9.03;3.58;;;;;;;21.27;90.78;100973.59;1736015;82;20925;-41
2022/06/27 04:11:14;;;;;;;7.53;3.58;;;;;;;21.38;89.88;100973.86;1736004;82;21246;-42
2022/06/27 04:13:43;;;;;;;4.35;3.80;;;;;;;21.56;89.96;100972.42;1736200;82;21490;-42
2022/06/27 04:16:29;;;;;;;6.37;3.72;;;;;;;21.71;87.40;100973.36;1736036;82;20885;-42
2022/06/27 04:19:07;;;;;;;7.67;3.40;;;;;;;21.90;87.39;100966.59;1720827;82;20893;-42
2022/06/27 04:21:39;;;;;;;4.90;3.70;;;;;;;22.06;87.09;100967.36;1735807;82;20972;-42
2022/06/27 04:24:12;;;;;;;10.50;3.70;;;;;;;22.24;85.66;100965.90;1735765;82;21872;-42
2022/06/27 04:26:40;;;;;;;5.05;3.35;;;;;;;22.39;84.94;100966.77;1731716;82;20944;-42
2022/06/27 04:29:07;;;;;;;12.80;3.40;;;;;;;22.53;84.44;100972.09;1736053;82;20885;-42
2022/06/27 04:31:35;;;;;;;5.70;3.47;;;;;;;22.72;83.13;100966.16;1735870;81;21502;-42
2022/06/27 04:34:02;;;;;;;4.90;3.33;;;;;;;22.85;81.55;100969.70;1736004;82;20877;-43
2022/06/27 04:36:31;;;;;;;6.05;3.35;;;;;;;22.97;80.34;100969.41;1735911;82;21165;-42
2022/06/27 04:38:58;;;;;;;5.45;3.12;;;;;;;23.09;80.49;100970.43;1735835;82;20937;-42
2022/06/27 04:41:45;;;;;;;7.22;3.33;;;;;;;23.27;79.60;100968.92;1736091;82;21462;-42
2022/06/27 04:44:12;;;;;;;4.92;2.90;;;;;;;23.43;77.60;100968.78;1735932;82;20925;-42
2022/06/27 04:46:40;;;;;;;4.95;2.98;;;;;;;23.57;78.04;100971.84;1736065;82;21419;-42
2022/06/27 04:49:09;;;;;;;3.77;3.02;;;;;;;23.73;76.27;100966.39;1736012;82;21072;-42
2022/06/27 04:51:36;;;;;;;4.80;2.83;;;;;;;23.94;74.96;100968.92;1735924;82;20937;-42
2022/06/27 04:54:03;;;;;;;7.15;2.67;;;;;;;24.13;75.29;100961.61;1736132;82;21608;-42
2022/06/27 04:56:30;;;;;;;11.97;3.10;;;;;;;24.33;75.17;100966.36;1735950;82;20885;-42
2022/06/27 04:58:57;;;;;;;6.85;3.20;;;;;;;24.61;72.86;100961.78;1736058;82;20984;-41
2022/06/27 05:01:25;;;;;;;5.05;2.42;;;;;;;24.88;70.20;100967.44;1735838;81;21040;-42
2022/06/27 05:03:53;;;;;;;6.53;3.05;;;;;;;25.03;70.47;100964.20;1734663;82;20957;-42
2022/06/27 05:06:24;;;;;;;11.20;2.70;;;;;;;25.24;69.03;100966.23;1734924;82;20898;-42
2022/06/27 05:08:51;;;;;;;9.38;2.42;;;;;;;25.38;67.97;100964.75;1736042;82;20901;-42
2022/06/27 05:11:18;;;;;;;9.90;3.12;;;;;;;25.55;67.03;100965.36;1736223;82;20988;-42
2022/06/27 05:13:45;;;;;;;3.20;2.70;;;;;;;25.71;66.41;100970.81;1736275;82;21130;-42
2022/06/27 05:16:14;;;;;;;6.47;2.37;;;;;;;25.94;66.49;100971.76;1735116;82;20912;-42
2022/06/27 05:18:41;;;;;;;3.05;2.35;;;;;;;26.14;63.89;100976.00;1715606;82;21459;-42
2022/06/27 05:21:08;;;;;;;2.70;2.52;;;;;;;26.31;64.21;100972.94;1736096;81;21118;-42
2022/06/27 05:23:37;;;;;;;4.85;2.70;;;;;;;26.50;62.91;100976.82;1736012;81;20949;-42
2022/06/27 05:26:05;;;;;;;5.75;2.30;;;;;;;26.61;60.71;100972.83;1736139;82;21159;-43
2022/06/27 05:28:33;;;;;;;6.12;2.17;;;;;;;26.64;59.51;100981.88;1736142;82;21020;-42
2022/06/27 05:31:00;;;;;;;4.65;2.25;;;;;;;26.71;59.35;100984.89;1736104;82;21363;-42
2022/06/27 05:33:26;;;;;;;6.10;2.60;;;;;;;26.81;58.41;100982.36;1735872;81;21004;-42
2022/06/27 05:35:54;;;;;;;7.28;2.02;;;;;;;26.89;57.19;100982.62;1736044;82;20988;-42
2022/06/27 05:38:21;;;;;;;4.55;1.98;;;;;;;26.95;57.76;100987.46;1736006;82;21063;-42
2022/06/27 05:40:48;;;;;;;6.03;2.02;;;;;;;27.04;57.56;100979.72;1715235;82;20988;-42
2022/06/27 05:43:15;;;;;;;7.28;2.40;;;;;;;27.17;55.51;100983.55;1735965;82;21490;-42
2022/06/27 05:45:42;;;;;;;2.92;2.00;;;;;;;27.13;54.40;100980.29;1736042;82;20941;-42
2022/06/27 05:48:23;;;;;;;9.18;2.35;;;;;;;27.00;54.96;100977.78;1689347;82;21172;-43
2022/06/27 05:50:52;;;;;;;5.35;2.02;;;;;;;26.99;55.87;100975.27;1734838;82;21387;-42
2022/06/27 05:53:20;;;;;;;9.68;2.25;;;;;;;27.00;57.24;100988.90;1735960;81;21296;-42
2022/06/27 05:55:47;;;;;;;2.90;2.25;;;;;;;27.09;57.71;100981.05;1736106;82;20964;-43
2022/06/27 05:58:14;;;;;;;9.78;2.12;;;;;;;27.27;56.94;100977.84;1736127;81;20941;-43
2022/06/27 06:00:41;;;;;;;4.30;2.15;;;;;;;27.31;55.14;100985.09;1715185;82;21529;-42
2022/06/27 06:03:08;;;;;;;2.72;2.10;;;;;;;27.37;55.68;100985.44;1735936;81;21134;-42
2022/06/27 06:05:37;;;;;;;4.03;2.55;;;;;;;27.58;55.40;100985.15;1735963;82;20925;-42
2022/06/27 06:08:05;;;;;;;1.82;1.72;;;;;;;27.66;54.68;100981.36;1736071;82;20929;-42
2022/06/27 06:10:33;;;;;;;6.15;2.27;;;;;;;27.64;52.94;100984.16;1736118;82;21544;-42
2022/06/27 06:13:01;;;;;;;3.72;2.22;;;;;;;27.64;53.66;100985.49;1735937;81;20925;-42
2022/06/27 06:15:31;;;;;;;4.90;2.30;;;;;;;27.64;53.79;100981.50;1736167;82;21439;-43
2022/06/27 06:18:03;;;;;;;7.25;2.15;;;;;;;27.68;55.75;100979.45;1736068;82;21483;-42
2022/06/27 06:20:31;;;;;;;2.67;2.30;;;;;;;27.86;54.35;100985.50;1736083;81;20925;-43
2022/06/27 06:23:00;;;;;;;8.00;2.25;;;;;;;27.98;53.89;100984.48;1739700;81;20841;-43
2022/06/27 06:25:29;;;;;;;5.55;1.92;;;;;;;27.94;54.10;100990.54;1744052;81;20964;-43
2022/06/27 06:28:02;;;;;;;9.03;2.60;;;;;;;27.88;52.96;100993.72;1744000;81;21090;-43
2022/06/27 06:30:33;;;;;;;4.58;2.20;;;;;;;27.82;53.80;100989.75;1744335;82;20964;-43
2022/06/27 06:33:04;;;;;;;2.50;2.27;;;;;;;27.68;53.07;100993.56;1744046;82;20956;-43
2022/06/27 06:35:33;;;;;;;5.80;2.30;;;;;;;27.60;54.40;100997.83;1744128;82;20944;-43
2022/06/27 06:38:01;;;;;;;6.72;1.82;;;;;;;27.70;53.99;100995.25;1744390;82;21443;-42
2022/06/27 06:40:30;;;;;;;3.58;2.02;;;;;;;27.75;53.20;100999.22;1744200;82;21802;-43
2022/06/27 06:42:59;;;;;;;6.92;2.17;;;;;;;27.71;53.46;101000.45;1743949;82;20921;-43
2022/06/27 06:45:29;;;;;;;8.60;2.02;;;;;;;27.66;53.81;100998.17;1730199;82;20854;-43
2022/06/27 06:48:02;;;;;;;9.50;2.33;;;;;;;27.71;54.36;101002.25;1741910;82;20885;-43
2022/06/27 06:50:31;;;;;;;5.35;2.30;;;;;;;27.78;52.17;100996.78;1744458;82;20991;-43
2022/06/27 06:52:58;;;;;;;3.45;2.40;;;;;;;27.82;53.38;100997.73;1714854;82;21123;-43
2022/06/27 06:55:26;;;;;;;3.05;1.90;;;;;;;28.02;53.75;101004.53;1744531;82;20979;-43
2022/06/27 06:57:54;;;;;;;3.72;2.10;;;;;;;28.12;50.47;101005.93;1744373;82;21454;-43
2022/06/27 07:00:21;;;;;;;5.83;2.00;;;;;;;28.08;51.18;101006.66;1744102;82;20893;-43
2022/06/27 07:02:48;;;;;;;5.78;1.90;;;;;;;28.04;49.83;101003.91;1744025;82;20972;-42
2022/06/27 07:05:16;;;;;;;5.20;2.05;;;;;;;27.96;48.82;101005.88;1744190;81;21223;-43
2022/06/27 07:07:43;;;;;;;2.92;2.10;;;;;;;28.02;50.69;101007.19;1744029;82;21430;-43
2022/06/27 07:10:11;;;;;;;4.20;2.12;;;;;;;28.18;50.24;101007.27;1744151;82;21762;-43
2022/06/27 07:12:38;;;;;;;2.47;1.90;;;;;;;28.28;48.90;101007.30;1744345;82;20853;-43
2022/06/27 07:15:09;;;;;;;6.80;1.85;;;;;;;28.27;48.77;101005.14;1744152;82;20885;-44
2022/06/27 07:17:49;;;;;;;5.40;2.00;;;;;;;28.32;49.21;101005.58;1744003;81;22132;-43
2022/06/27 07:20:20;;;;;;;2.27;1.70;;;;;;;28.45;48.37;101011.20;1744083;82;20976;-43
2022/06/27 07:22:48;;;;;;;5.28;1.62;;;;;;;28.49;47.56;101014.77;1741979;81;20925;-43
2022/06/27 07:25:17;;;;;;;3.92;1.90;;;;;;;28.64;46.03;101010.44;1735874;82;20933;-43
2022/06/27 07:27:44;;;;;;;4.70;1.50;;;;;;;28.80;46.18;101012.16;1736036;82;20921;-43
2022/06/27 07:30:11;;;;;;;9.45;1.55;;;;;;;28.90;43.61;101007.34;1735941;82;21238;-43
2022/06/27 07:32:42;;;;;;;1.72;1.60;;;;;;;28.87;45.86;101013.77;1739656;81;20925;-43
2022/06/27 07:35:11;;;;;;;4.20;1.52;;;;;;;29.05;42.77;101007.81;1735949;82;20972;-43
2022/06/27 07:37:44;;;;;;;5.28;1.40;;;;;;;29.06;42.51;101008.16;1735842;82;20889;-43
2022/06/27 07:40:09;;;;;;;5.47;1.92;;;;;;;29.04;41.99;101010.95;1735899;82;21001;-43
2022/06/27 07:42:37;;;;;;;3.60;1.47;;;;;;;28.99;41.73;101003.03;1735926;81;21518;-43
2022/06/27 07:45:08;;;;;;;2.98;1.55;;;;;;;28.90;40.20;101006.84;1735911;82;20894;-43
2022/06/27 07:47:35;;;;;;;6.72;1.75;;;;;;;28.88;39.25;100997.31;1736034;82;20992;-43
2022/06/27 07:50:03;;;;;;;2.62;1.75;;;;;;;28.79;39.24;100998.97;1735782;82;21391;-43
2022/06/27 07:53:11;;;;;;;3.80;1.70;;;;;;;28.79;40.20;100990.98;1735922;82;20961;-44
2022/06/27 07:54:59;;;;;;;8.20;1.60;;;;;;;28.86;41.40;101004.09;1733280;82;21123;-44
2022/06/27 07:57:26;;;;;;;8.10;1.80;;;;;;;29.04;41.73;101006.13;1736177;82;21041;-44
2022/06/27 07:59:54;;;;;;;3.42;1.75;;;;;;;29.33;40.12;101000.00;1735937;82;20992;-43
2022/06/27 08:02:21;;;;;;;10.90;2.00;;;;;;;29.35;38.77;101006.03;1735804;82;21475;-43
2022/06/27 08:04:48;;;;;;;7.92;1.87;;;;;;;29.40;41.27;101001.12;1736184;82;20877;-44
2022/06/27 08:07:15;;;;;;;6.03;2.05;;;;;;;29.61;40.43;101006.86;1735866;81;21475;-44
2022/06/27 08:09:43;;;;;;;3.47;2.08;;;;;;;29.70;38.78;101006.03;1735692;82;20846;-44
2022/06/27 08:12:10;;;;;;;6.53;1.95;;;;;;;29.60;37.59;101011.37;1735990;82;21000;-44
2022/06/27 08:14:37;;;;;;;5.87;2.30;;;;;;;29.40;38.21;101006.45;1735836;82;21395;-43
2022/06/27 08:17:05;;;;;;;4.15;1.90;;;;;;;29.39;38.68;101012.77;1735891;82;20964;-43
2022/06/27 08:19:31;;;;;;;5.87;1.95;;;;;;;29.42;38.48;101015.69;1735801;82;21340;-43
2022/06/27 08:21:58;;;;;;;21.37;1.98;;;;;;;29.44;38.30;101003.06;1735757;82;20980;-44
2022/06/27 08:24:25;;;;;;;4.15;1.70;;;;;;;29.43;37.54;101004.91;1747121;81;21303;-44
2022/06/27 08:26:52;;;;;;;4.33;1.85;;;;;;;29.37;38.02;101008.07;1749928;82;21384;-44
2022/06/27 08:29:20;;;;;;;10.13;1.82;;;;;;;29.43;38.31;100999.58;1750020;82;20880;-44
2022/06/27 08:31:48;;;;;;;4.20;1.60;;;;;;;29.51;37.83;100973.52;1749788;81;21067;-44
2022/06/27 08:34:16;;;;;;;2.02;1.82;;;;;;;29.52;38.95;100993.39;1749631;82;20877;-44
2022/06/27 08:36:42;;;;;;;4.67;1.95;;;;;;;29.66;38.50;100985.47;1749797;81;20957;-44
2022/06/27 08:39:16;;;;;;;11.08;1.77;;;;;;;29.82;36.99;100982.73;1749986;81;20917;-43
2022/06/27 08:41:40;;;;;;;3.15;1.70;;;;;;;29.85;37.75;100977.10;1749793;82;20984;-44
2022/06/27 08:44:07;;;;;;;3.70;1.62;;;;;;;30.03;37.75;100986.58;1750258;82;21513;-44
2022/06/27 08:46:34;;;;;;;6.55;1.92;;;;;;;30.17;37.35;100989.28;1750170;82;20892;-44
2022/06/27 08:49:03;;;;;;;5.15;2.12;;;;;;;30.33;37.14;100979.84;1750121;82;21442;-44
2022/06/27 08:51:31;;;;;;;2.00;1.85;;;;;;;30.33;37.42;100985.18;1750011;82;21070;-44
2022/06/27 08:53:58;;;;;;;2.83;1.82;;;;;;;30.30;37.05;100981.44;1750170;82;20932;-43
2022/06/27 08:56:26;;;;;;;2.65;1.67;;;;;;;30.24;37.32;100980.22;1749982;82;21075;-44
2022/06/27 08:58:55;;;;;;;10.03;2.15;;;;;;;30.24;37.53;100986.89;1749947;81;21445;-44
2022/06/27 09:01:23;;;;;;;1.82;1.70;;;;;;;30.33;36.83;100979.33;1750228;82;21521;-44
2022/06/27 09:04:06;;;;;;;2.25;1.52;;;;;;;30.46;37.14;100977.67;1749950;81;20960;-44
2022/06/27 09:06:43;;;;;;;1.60;1.60;;;;;;;30.55;36.53;100977.28;1750130;81;21502;-44
2022/06/27 09:09:13;;;;;;;3.80;2.50;;;;;;;30.50;36.32;100980.39;1749951;81;22194;-44
2022/06/27 09:11:46;;;;;;;2.65;1.52;;;;;;;30.37;36.41;100973.22;1750052;82;20845;-44
2022/06/27 09:14:37;;;;;;;2.60;1.72;;;;;;;30.44;37.55;100980.98;1749738;82;20956;-44
2022/06/27 09:17:09;;;;;;;2.10;1.50;;;;;;;30.46;37.96;100982.19;1750183;82;20956;-44
2022/06/27 09:19:54;;;;;;;4.70;1.65;;;;;;;30.61;37.13;100978.05;1749992;82;20845;-44
2022/06/27 09:22:24;;;;;;;4.08;1.50;;;;;;;30.75;36.28;100985.25;1747552;82;21272;-44
2022/06/27 09:25:01;;;;;;;2.37;1.67;;;;;;;30.64;36.74;100980.94;1738055;81;20917;-44
2022/06/27 09:27:50;;;;;;;4.12;1.82;;;;;;;30.50;37.04;100979.56;1734100;82;21466;-44
2022/06/27 09:30:23;;;;;;;25.82;3.12;;;;;;;30.49;36.65;100981.89;1736013;82;21474;-43
2022/06/27 09:32:59;;;;;;;8.90;1.92;;;;;;;30.45;37.07;100984.00;1736325;82;20948;-43
2022/06/27 09:35:36;;;;;;;8.40;1.80;;;;;;;30.37;35.91;100959.36;1736350;82;22006;-43
2022/06/27 09:38:07;;;;;;;6.50;2.08;;;;;;;30.12;36.61;100976.88;1736112;82;20992;-43
2022/06/27 09:40:35;;;;;;;5.00;1.85;;;;;;;30.00;37.26;100968.16;1736200;82;20929;-43
2022/06/27 09:43:03;;;;;;;2.67;1.77;;;;;;;30.13;37.20;100971.03;1735933;82;20917;-43
2022/06/27 09:45:31;;;;;;;9.98;1.50;;;;;;;30.24;37.09;100966.87;1736085;82;20917;-43
2022/06/27 09:48:01;;;;;;;5.97;1.60;;;;;;;30.31;34.97;100969.30;1736109;82;21274;-43
2022/06/27 09:50:29;;;;;;;20.88;3.37;;;;;;;30.33;34.50;100971.83;1736004;82;20917;-43
2022/06/27 09:52:56;;;;;;;7.33;1.80;;;;;;;30.33;35.17;100965.16;1735891;81;21344;-43
2022/06/27 09:55:23;;;;;;;3.77;1.60;;;;;;;30.52;36.33;100962.39;1736100;81;20983;-43
2022/06/27 09:57:52;;;;;;;3.05;1.72;;;;;;;30.62;35.65;100970.39;1736073;82;21513;-43
2022/06/27 10:00:20;;;;;;;3.12;1.72;;;;;;;30.64;35.03;100973.75;1736352;82;21140;-43
2022/06/27 10:02:47;;;;;;;6.00;1.42;;;;;;;30.59;34.74;100967.16;1735898;82;20889;-43
2022/06/27 10:05:16;;;;;;;8.73;1.52;;;;;;;30.42;34.35;100964.75;1736065;82;20925;-43
2022/06/27 10:08:00;;;;;;;6.05;1.62;;;;;;;30.39;34.69;100967.23;1735979;82;20992;-43
2022/06/27 10:10:32;;;;;;;1.57;1.47;;;;;;;30.32;34.61;100965.64;1736362;82;20980;-43
2022/06/27 10:13:01;;;;;;;3.65;1.80;;;;;;;30.38;34.91;100966.38;1736117;82;21135;-43
2022/06/27 10:15:29;;;;;;;6.28;1.50;;;;;;;30.49;34.11;100964.53;1735988;82;20913;-43
2022/06/27 10:17:59;;;;;;;4.78;1.55;;;;;;;30.35;34.58;100969.34;1735819;82;21430;-43
2022/06/27 10:20:38;;;;;;;1.65;1.25;;;;;;;30.21;35.21;100952.48;1736031;82;20932;-42
2022/06/27 10:23:26;;;;;;;2.47;1.77;;;;;;;30.16;35.76;100956.05;1736076;82;20929;-43
2022/06/27 10:25:54;;;;;;;2.65;1.70;;;;;;;30.26;36.39;100955.55;1736000;82;22153;-43
2022/06/27 10:28:22;;;;;;;5.10;1.50;;;;;;;30.47;36.33;100954.49;1735963;81;20866;-43
2022/06/27 10:30:52;;;;;;;2.85;1.50;;;;;;;30.63;35.29;100945.36;1736116;82;20925;-43
2022/06/27 10:33:25;;;;;;;4.42;1.62;;;;;;;30.64;35.51;100957.73;1736045;82;20893;-43
2022/06/27 10:36:10;;;;;;;15.80;1.57;;;;;;;30.64;33.38;100937.70;1736232;82;20968;-43
2022/06/27 10:38:41;;;;;;;5.50;1.50;;;;;;;30.52;33.15;100966.91;1735186;82;21189;-43
2022/06/27 10:41:10;;;;;;;5.33;1.70;;;;;;;30.38;34.23;100950.36;1735946;82;20952;-43
2022/06/27 10:43:45;;;;;;;3.25;1.82;;;;;;;30.37;35.40;100951.35;1736525;81;20976;-43
2022/06/27 10:46:17;;;;;;;3.92;1.60;;;;;;;30.48;35.71;100943.65;1736191;82;20968;-42
2022/06/27 10:48:54;;;;;;;4.40;1.55;;;;;;;30.58;34.97;100946.28;1736315;82;21027;-43
2022/06/27 10:51:26;;;;;;;8.90;1.70;;;;;;;30.38;32.83;100935.68;1734913;82;21764;-43
2022/06/27 10:54:09;;;;;;;3.50;1.70;;;;;;;30.21;34.77;100937.80;1736137;82;20937;-43
2022/06/27 10:56:47;;;;;;;1.50;1.10;;;;;;;30.29;34.93;100945.91;1715114;82;20945;-42
2022/06/27 10:59:19;;;;;;;3.35;1.52;;;;;;;30.44;34.74;100941.41;1736036;82;20921;-43
2022/06/27 11:02:07;;;;;;;2.08;1.25;;;;;;;30.63;36.64;100941.87;1733105;82;21475;-43
2022/06/27 11:04:35;;;;;;;2.52;1.37;;;;;;;30.71;34.41;100935.79;1736043;82;22013;-42
2022/06/27 11:07:06;;;;;;;1.85;1.50;;;;;;;30.74;35.70;100944.84;1736001;82;21480;-42
2022/06/27 11:09:47;;;;;;;3.12;1.42;;;;;;;30.90;34.92;100946.34;1736105;82;20925;-43
2022/06/27 11:12:20;;;;;;;4.83;1.67;;;;;;;31.04;35.23;100941.48;1735942;82;20996;-42
2022/06/27 11:14:52;;;;;;;2.65;1.52;;;;;;;31.03;34.78;100927.78;1736046;81;21454;-43
2022/06/27 11:17:43;;;;;;;3.50;1.47;;;;;;;31.09;34.40;100944.53;1736050;82;20935;-43
2022/06/27 11:20:19;;;;;;;3.42;1.50;;;;;;;31.21;34.25;100939.36;1736039;82;21467;-43
2022/06/27 11:22:52;;;;;;;5.00;1.45;;;;;;;31.33;33.79;100945.80;1736062;82;21304;-43
2022/06/27 11:25:20;;;;;;;7.53;1.60;;;;;;;31.35;32.34;100935.30;1746203;81;20995;-43
2022/06/27 11:31:57;;;;;;;6.87;1.35;;;;;;;31.32;33.51;100940.11;1750093;82;21342;-43
2022/06/27 11:33:20;;;;;;;1.60;1.50;;;;;;;31.28;34.31;100932.88;1749987;82;20968;-43
2022/06/27 11:35:47;;;;;;;5.33;1.60;;;;;;;31.18;33.87;100938.27;1749999;82;20928;-43
2022/06/27 11:38:32;;;;;;;4.50;1.52;;;;;;;31.03;34.33;100929.94;1749911;82;20928;-44
2022/06/27 11:41:05;;;;;;;3.17;1.50;;;;;;;31.03;34.98;100933.12;1722861;82;20884;-43